Aviation Digital Data Service (ADDS)

Output produced by METARs form (0400 UTC 24 January 2019)
found at http://www.aviationweather.gov/metar/data/
 
METAR text: BIKF 240330Z 11004KT CAVOK M02/M06 Q1000
Conditions at: BIKF (KEFLAVIK (CIV/MI, IS) observed 0330 UTC 24 January 2019
Temperature: -2.0°C (28°F)
Dewpoint: -6.0°C (21°F) [RH = 74%]
Pressure (altimeter): 29.53 inches Hg (1000.0 mb)
Winds: from the ESE (110 degrees) at 5 MPH (4 knots; 2.1 m/s)
Visibility: 6 or more miles (10+ km)
Ceiling: ceiling and visibility are OK
Clouds: unknown
Weather: no significant weather observed at this time

METAR text: BIKF 240300Z 03003KT CAVOK M03/M07 Q1000
Conditions at: BIKF (KEFLAVIK (CIV/MI, IS) observed 0300 UTC 24 January 2019
Temperature: -3.0°C (27°F)
Dewpoint: -7.0°C (19°F) [RH = 74%]
Pressure (altimeter): 29.53 inches Hg (1000.0 mb)
Winds: from the NNE (30 degrees) at 3 MPH (3 knots; 1.5 m/s)
Visibility: 6 or more miles (10+ km)
Ceiling: ceiling and visibility are OK
Clouds: unknown
Weather: no significant weather observed at this time

METAR text: BIKF 240230Z 09002KT 9999 FEW008 BKN095 OVC130 M02/M06 Q1001
Conditions at: BIKF (KEFLAVIK (CIV/MI, IS) observed 0230 UTC 24 January 2019
Temperature: -2.0°C (28°F)
Dewpoint: -6.0°C (21°F) [RH = 74%]
Pressure (altimeter): 29.56 inches Hg (1001.0 mb)
Winds: from the E (90 degrees) at 2 MPH (2 knots; 1.0 m/s)
Visibility: 6 or more miles (10+ km)
Ceiling: 9500 feet AGL
Clouds: few clouds at 800 feet AGL
broken clouds at 9500 feet AGL
overcast cloud deck at 13000 feet AGL
Weather: no significant weather observed at this time

METAR text: BIKF 240200Z 11003KT 9999 FEW008 OVC100 M02/M06 Q1001
Conditions at: BIKF (KEFLAVIK (CIV/MI, IS) observed 0200 UTC 24 January 2019
Temperature: -2.0°C (28°F)
Dewpoint: -6.0°C (21°F) [RH = 74%]
Pressure (altimeter): 29.56 inches Hg (1001.0 mb)
Winds: from the ESE (110 degrees) at 3 MPH (3 knots; 1.5 m/s)
Visibility: 6 or more miles (10+ km)
Ceiling: 10000 feet AGL
Clouds: few clouds at 800 feet AGL
overcast cloud deck at 10000 feet AGL
Weather: no significant weather observed at this time

METAR text: BIKF 240130Z 08004KT 9999 FEW008 OVC100 M02/M06 Q1001
Conditions at: BIKF (KEFLAVIK (CIV/MI, IS) observed 0130 UTC 24 January 2019
Temperature: -2.0°C (28°F)
Dewpoint: -6.0°C (21°F) [RH = 74%]
Pressure (altimeter): 29.56 inches Hg (1001.0 mb)
Winds: from the E (80 degrees) at 5 MPH (4 knots; 2.1 m/s)
Visibility: 6 or more miles (10+ km)
Ceiling: 10000 feet AGL
Clouds: few clouds at 800 feet AGL
overcast cloud deck at 10000 feet AGL
Weather: no significant weather observed at this time

METAR text: BIKF 240100Z 09004KT 9999 FEW005 OVC095 M02/M06 Q1001
Conditions at: BIKF (KEFLAVIK (CIV/MI, IS) observed 0100 UTC 24 January 2019
Temperature: -2.0°C (28°F)
Dewpoint: -6.0°C (21°F) [RH = 74%]
Pressure (altimeter): 29.56 inches Hg (1001.0 mb)
Winds: from the E (90 degrees) at 5 MPH (4 knots; 2.1 m/s)
Visibility: 6 or more miles (10+ km)
Ceiling: 9500 feet AGL
Clouds: few clouds at 500 feet AGL
overcast cloud deck at 9500 feet AGL
Weather: no significant weather observed at this time

METAR text: BIKF 240030Z 09006KT 9999 FEW005 OVC095 M03/M04 Q1002 R19/720060
Conditions at: BIKF (KEFLAVIK (CIV/MI, IS) observed 0030 UTC 24 January 2019
Temperature: -3.0°C (27°F)
Dewpoint: -4.0°C (25°F) [RH = 93%]
Pressure (altimeter): 29.59 inches Hg (1002.0 mb)
Winds: from the E (90 degrees) at 7 MPH (6 knots; 3.1 m/s)
Visibility: 6 or more miles (10+ km)
Ceiling: 9500 feet AGL
Clouds: few clouds at 500 feet AGL
overcast cloud deck at 9500 feet AGL
Weather: no significant weather observed at this time

METAR text: BIKF 240000Z 12006KT 9999 FEW005 OVC110 M04/M04 Q1002 R19/720060
Conditions at: BIKF (KEFLAVIK (CIV/MI, IS) observed 0000 UTC 24 January 2019
Temperature: -4.0°C (25°F)
Dewpoint: -4.0°C (25°F) [RH = 100%]
Pressure (altimeter): 29.59 inches Hg (1002.0 mb)
Winds: from the ESE (120 degrees) at 7 MPH (6 knots; 3.1 m/s)
Visibility: 6 or more miles (10+ km)
Ceiling: 11000 feet AGL
Clouds: few clouds at 500 feet AGL
overcast cloud deck at 11000 feet AGL
Weather: no significant weather observed at this time

METAR text: BIKF 232330Z 09004KT 9999 FEW005 BKN120 M02/M03 Q1003 R19/720060
Conditions at: BIKF (KEFLAVIK (CIV/MI, IS) observed 2330 UTC 23 January 2019
Temperature: -2.0°C (28°F)
Dewpoint: -3.0°C (27°F) [RH = 93%]
Pressure (altimeter): 29.62 inches Hg (1003.0 mb)
Winds: from the E (90 degrees) at 5 MPH (4 knots; 2.1 m/s)
Visibility: 6 or more miles (10+ km)
Ceiling: 12000 feet AGL
Clouds: few clouds at 500 feet AGL
broken clouds at 12000 feet AGL
Weather: no significant weather observed at this time

METAR text: BIKF 232300Z 08005KT 9999 FEW018 BKN130 M02/M03 Q1003
Conditions at: BIKF (KEFLAVIK (CIV/MI, IS) observed 2300 UTC 23 January 2019
Temperature: -2.0°C (28°F)
Dewpoint: -3.0°C (27°F) [RH = 93%]
Pressure (altimeter): 29.62 inches Hg (1003.0 mb)
Winds: from the E (80 degrees) at 6 MPH (5 knots; 2.6 m/s)
Visibility: 6 or more miles (10+ km)
Ceiling: 13000 feet AGL
Clouds: few clouds at 1800 feet AGL
broken clouds at 13000 feet AGL
Weather: no significant weather observed at this time

METAR text: BIKF 232230Z 09004KT 9999 FEW011 BKN140 M02/M03 Q1003
Conditions at: BIKF (KEFLAVIK (CIV/MI, IS) observed 2230 UTC 23 January 2019
Temperature: -2.0°C (28°F)
Dewpoint: -3.0°C (27°F) [RH = 93%]
Pressure (altimeter): 29.62 inches Hg (1003.0 mb)
Winds: from the E (90 degrees) at 5 MPH (4 knots; 2.1 m/s)
Visibility: 6 or more miles (10+ km)
Ceiling: 14000 feet AGL
Clouds: few clouds at 1100 feet AGL
broken clouds at 14000 feet AGL
Weather: no significant weather observed at this time

METAR text: BIKF 232200Z 09005KT 9999 FEW029 BKN170 M02/M03 Q1003
Conditions at: BIKF (KEFLAVIK (CIV/MI, IS) observed 2200 UTC 23 January 2019
Temperature: -2.0°C (28°F)
Dewpoint: -3.0°C (27°F) [RH = 93%]
Pressure (altimeter): 29.62 inches Hg (1003.0 mb)
Winds: from the E (90 degrees) at 6 MPH (5 knots; 2.6 m/s)
Visibility: 6 or more miles (10+ km)
Ceiling: 17000 feet AGL
Clouds: few clouds at 2900 feet AGL
broken clouds at 17000 feet AGL
Weather: no significant weather observed at this time

METAR text: BIKF 232130Z 09005KT 9999 FEW029 BKN180 M03/M03 Q1003
Conditions at: BIKF (KEFLAVIK (CIV/MI, IS) observed 2130 UTC 23 January 2019
Temperature: -3.0°C (27°F)
Dewpoint: -3.0°C (27°F) [RH = 100%]
Pressure (altimeter): 29.62 inches Hg (1003.0 mb)
Winds: from the E (90 degrees) at 6 MPH (5 knots; 2.6 m/s)
Visibility: 6 or more miles (10+ km)
Ceiling: 18000 feet AGL
Clouds: few clouds at 2900 feet AGL
broken clouds at 18000 feet AGL
Weather: no significant weather observed at this time

METAR text: BIKF 232100Z 08004KT 9999 FEW030 BKN210 M03/M03 Q1003
Conditions at: BIKF (KEFLAVIK (CIV/MI, IS) observed 2100 UTC 23 January 2019
Temperature: -3.0°C (27°F)
Dewpoint: -3.0°C (27°F) [RH = 100%]
Pressure (altimeter): 29.62 inches Hg (1003.0 mb)
Winds: from the E (80 degrees) at 5 MPH (4 knots; 2.1 m/s)
Visibility: 6 or more miles (10+ km)
Ceiling: 21000 feet AGL
Clouds: few clouds at 3000 feet AGL
broken clouds at 21000 feet AGL
Weather: no significant weather observed at this time

METAR text: BIKF 232030Z 10002KT 9999 FEW030 BKN210 M03/M04 Q1004
Conditions at: BIKF (KEFLAVIK (CIV/MI, IS) observed 2030 UTC 23 January 2019
Temperature: -3.0°C (27°F)
Dewpoint: -4.0°C (25°F) [RH = 93%]
Pressure (altimeter): 29.65 inches Hg (1004.0 mb)
Winds: from the E (100 degrees) at 2 MPH (2 knots; 1.0 m/s)
Visibility: 6 or more miles (10+ km)
Ceiling: 21000 feet AGL
Clouds: few clouds at 3000 feet AGL
broken clouds at 21000 feet AGL
Weather: no significant weather observed at this time

METAR text: BIKF 232000Z 12003KT 9999 FEW030 BKN210 M04/M05 Q1004 R19/720065
Conditions at: BIKF (KEFLAVIK (CIV/MI, IS) observed 2000 UTC 23 January 2019
Temperature: -4.0°C (25°F)
Dewpoint: -5.0°C (23°F) [RH = 93%]
Pressure (altimeter): 29.65 inches Hg (1004.0 mb)
Winds: from the ESE (120 degrees) at 3 MPH (3 knots; 1.5 m/s)
Visibility: 6 or more miles (10+ km)
Ceiling: 21000 feet AGL
Clouds: few clouds at 3000 feet AGL
broken clouds at 21000 feet AGL
Weather: no significant weather observed at this time

METAR text: BIKF 231930Z 09003KT 9999 FEW027 BKN230 M03/M03 Q1004 R19/720065
Conditions at: BIKF (KEFLAVIK (CIV/MI, IS) observed 1930 UTC 23 January 2019
Temperature: -3.0°C (27°F)
Dewpoint: -3.0°C (27°F) [RH = 100%]
Pressure (altimeter): 29.65 inches Hg (1004.0 mb)
Winds: from the E (90 degrees) at 3 MPH (3 knots; 1.5 m/s)
Visibility: 6 or more miles (10+ km)
Ceiling: 23000 feet AGL
Clouds: few clouds at 2700 feet AGL
broken clouds at 23000 feet AGL
Weather: no significant weather observed at this time

METAR text: BIKF 231900Z 09004KT 060V120 9999 FEW027 BKN230 M04/M04 Q1003 R19/720065
Conditions at: BIKF (KEFLAVIK (CIV/MI, IS) observed 1900 UTC 23 January 2019
Temperature: -4.0°C (25°F)
Dewpoint: -4.0°C (25°F) [RH = 100%]
Pressure (altimeter): 29.62 inches Hg (1003.0 mb)
Winds: from the E (90 degrees) at 5 MPH (4 knots; 2.1 m/s)
Visibility: 6 or more miles (10+ km)
Ceiling: 23000 feet AGL
Clouds: few clouds at 2700 feet AGL
broken clouds at 23000 feet AGL
Weather: no significant weather observed at this time

METAR text: BIKF 231830Z 15007KT 9999 FEW027TCU SCT030 BKN240 M03/M04 Q1003 R19/720063
Conditions at: BIKF (KEFLAVIK (CIV/MI, IS) observed 1830 UTC 23 January 2019
Temperature: -3.0°C (27°F)
Dewpoint: -4.0°C (25°F) [RH = 93%]
Pressure (altimeter): 29.62 inches Hg (1003.0 mb)
Winds: from the SSE (150 degrees) at 8 MPH (7 knots; 3.6 m/s)
Visibility: 6 or more miles (10+ km)
Ceiling: 24000 feet AGL
Clouds: few clouds at 2700 feet AGL
scattered clouds at 3000 feet AGL
broken clouds at 24000 feet AGL
Weather: no significant weather observed at this time

METAR text: BIKF 231800Z 16007KT 9999 FEW027TCU SCT033 BKN250 M04/M04 Q1003
Conditions at: BIKF (KEFLAVIK (CIV/MI, IS) observed 1800 UTC 23 January 2019
Temperature: -4.0°C (25°F)
Dewpoint: -4.0°C (25°F) [RH = 100%]
Pressure (altimeter): 29.62 inches Hg (1003.0 mb)
Winds: from the SSE (160 degrees) at 8 MPH (7 knots; 3.6 m/s)
Visibility: 6 or more miles (10+ km)
Ceiling: 25000 feet AGL
Clouds: few clouds at 2700 feet AGL
scattered clouds at 3300 feet AGL
broken clouds at 25000 feet AGL
Weather: no significant weather observed at this time

METAR text: BIKF 231730Z 17006KT 9999 FEW027TCU SCT030 BKN250 M04/M04 Q1003 R19/720065
Conditions at: BIKF (KEFLAVIK (CIV/MI, IS) observed 1730 UTC 23 January 2019
Temperature: -4.0°C (25°F)
Dewpoint: -4.0°C (25°F) [RH = 100%]
Pressure (altimeter): 29.62 inches Hg (1003.0 mb)
Winds: from the S (170 degrees) at 7 MPH (6 knots; 3.1 m/s)
Visibility: 6 or more miles (10+ km)
Ceiling: 25000 feet AGL
Clouds: few clouds at 2700 feet AGL
scattered clouds at 3000 feet AGL
broken clouds at 25000 feet AGL
Weather: no significant weather observed at this time

METAR text: BIKF 231700Z 17005KT 9999 FEW027TCU SCT030 BKN250 M04/M05 Q1003 R19/720065
Conditions at: BIKF (KEFLAVIK (CIV/MI, IS) observed 1700 UTC 23 January 2019
Temperature: -4.0°C (25°F)
Dewpoint: -5.0°C (23°F) [RH = 93%]
Pressure (altimeter): 29.62 inches Hg (1003.0 mb)
Winds: from the S (170 degrees) at 6 MPH (5 knots; 2.6 m/s)
Visibility: 6 or more miles (10+ km)
Ceiling: 25000 feet AGL
Clouds: few clouds at 2700 feet AGL
scattered clouds at 3000 feet AGL
broken clouds at 25000 feet AGL
Weather: no significant weather observed at this time

METAR text: BIKF 231630Z 17003KT 9999 FEW029TCU BKN033 M03/M04 Q1003 R19/720065
Conditions at: BIKF (KEFLAVIK (CIV/MI, IS) observed 1630 UTC 23 January 2019
Temperature: -3.0°C (27°F)
Dewpoint: -4.0°C (25°F) [RH = 93%]
Pressure (altimeter): 29.62 inches Hg (1003.0 mb)
Winds: from the S (170 degrees) at 3 MPH (3 knots; 1.5 m/s)
Visibility: 6 or more miles (10+ km)
Ceiling: 3300 feet AGL
Clouds: few clouds at 2900 feet AGL
broken clouds at 3300 feet AGL
Weather: no significant weather observed at this time

METAR text: BIKF 231600Z 17004KT 140V210 9999 FEW030TCU BKN037 M03/M04 Q1003 R19/720062
Conditions at: BIKF (KEFLAVIK (CIV/MI, IS) observed 1600 UTC 23 January 2019
Temperature: -3.0°C (27°F)
Dewpoint: -4.0°C (25°F) [RH = 93%]
Pressure (altimeter): 29.62 inches Hg (1003.0 mb)
Winds: from the S (170 degrees) at 5 MPH (4 knots; 2.1 m/s)
Visibility: 6 or more miles (10+ km)
Ceiling: 3700 feet AGL
Clouds: few clouds at 3000 feet AGL
broken clouds at 3700 feet AGL
Weather: no significant weather observed at this time

METAR text: BIKF 231530Z 16007KT 9999 FEW021TCU SCT038TCU BKN043 M04/M05 Q1002 R19/720062
Conditions at: BIKF (KEFLAVIK (CIV/MI, IS) observed 1530 UTC 23 January 2019
Temperature: -4.0°C (25°F)
Dewpoint: -5.0°C (23°F) [RH = 93%]
Pressure (altimeter): 29.59 inches Hg (1002.0 mb)
Winds: from the SSE (160 degrees) at 8 MPH (7 knots; 3.6 m/s)
Visibility: 6 or more miles (10+ km)
Ceiling: 4300 feet AGL
Clouds: few clouds at 2100 feet AGL
scattered clouds at 3800 feet AGL
broken clouds at 4300 feet AGL
Weather: no significant weather observed at this time

METAR text: BIKF 231500Z 16007KT 9999 FEW021TCU SCT037TCU M04/M05 Q1002 R19/720062
Conditions at: BIKF (KEFLAVIK (CIV/MI, IS) observed 1500 UTC 23 January 2019
Temperature: -4.0°C (25°F)
Dewpoint: -5.0°C (23°F) [RH = 93%]
Pressure (altimeter): 29.59 inches Hg (1002.0 mb)
Winds: from the SSE (160 degrees) at 8 MPH (7 knots; 3.6 m/s)
Visibility: 6 or more miles (10+ km)
Ceiling: at least 12,000 feet AGL
Clouds: few clouds at 2100 feet AGL
scattered clouds at 3700 feet AGL
Weather: no significant weather observed at this time

METAR text: BIKF 231430Z 16008KT 9999 FEW021TCU SCT036TCU M04/M04 Q1002 R19/720062
Conditions at: BIKF (KEFLAVIK (CIV/MI, IS) observed 1430 UTC 23 January 2019
Temperature: -4.0°C (25°F)
Dewpoint: -4.0°C (25°F) [RH = 100%]
Pressure (altimeter): 29.59 inches Hg (1002.0 mb)
Winds: from the SSE (160 degrees) at 9 MPH (8 knots; 4.1 m/s)
Visibility: 6 or more miles (10+ km)
Ceiling: at least 12,000 feet AGL
Clouds: few clouds at 2100 feet AGL
scattered clouds at 3600 feet AGL
Weather: no significant weather observed at this time

METAR text: BIKF 231400Z 16008KT 9999 FEW021TCU SCT038TCU M04/M04 Q1002 R19/720062
Conditions at: BIKF (KEFLAVIK (CIV/MI, IS) observed 1400 UTC 23 January 2019
Temperature: -4.0°C (25°F)
Dewpoint: -4.0°C (25°F) [RH = 100%]
Pressure (altimeter): 29.59 inches Hg (1002.0 mb)
Winds: from the SSE (160 degrees) at 9 MPH (8 knots; 4.1 m/s)
Visibility: 6 or more miles (10+ km)
Ceiling: at least 12,000 feet AGL
Clouds: few clouds at 2100 feet AGL
scattered clouds at 3800 feet AGL
Weather: no significant weather observed at this time

METAR text: BIKF 231330Z 15009KT 9999 FEW022TCU SCT039TCU M03/M04 Q1002 R19/720056
Conditions at: BIKF (KEFLAVIK (CIV/MI, IS) observed 1330 UTC 23 January 2019
Temperature: -3.0°C (27°F)
Dewpoint: -4.0°C (25°F) [RH = 93%]
Pressure (altimeter): 29.59 inches Hg (1002.0 mb)
Winds: from the SSE (150 degrees) at 10 MPH (9 knots; 4.6 m/s)
Visibility: 6 or more miles (10+ km)
Ceiling: at least 12,000 feet AGL
Clouds: few clouds at 2200 feet AGL
scattered clouds at 3900 feet AGL
Weather: no significant weather observed at this time

METAR text: BIKF 231300Z 15009KT 9999 FEW021TCU SCT031TCU M03/M04 Q1001 R19/720056
Conditions at: BIKF (KEFLAVIK (CIV/MI, IS) observed 1300 UTC 23 January 2019
Temperature: -3.0°C (27°F)
Dewpoint: -4.0°C (25°F) [RH = 93%]
Pressure (altimeter): 29.56 inches Hg (1001.0 mb)
Winds: from the SSE (150 degrees) at 10 MPH (9 knots; 4.6 m/s)
Visibility: 6 or more miles (10+ km)
Ceiling: at least 12,000 feet AGL
Clouds: few clouds at 2100 feet AGL
scattered clouds at 3100 feet AGL
Weather: no significant weather observed at this time

METAR text: BIKF 231230Z 16010KT 9999 FEW021TCU SCT031TCU M03/M04 Q1001 R19/720056
Conditions at: BIKF (KEFLAVIK (CIV/MI, IS) observed 1230 UTC 23 January 2019
Temperature: -3.0°C (27°F)
Dewpoint: -4.0°C (25°F) [RH = 93%]
Pressure (altimeter): 29.56 inches Hg (1001.0 mb)
Winds: from the SSE (160 degrees) at 12 MPH (10 knots; 5.1 m/s)
Visibility: 6 or more miles (10+ km)
Ceiling: at least 12,000 feet AGL
Clouds: few clouds at 2100 feet AGL
scattered clouds at 3100 feet AGL
Weather: no significant weather observed at this time

METAR text: BIKF 231200Z 16010KT 9999 SCT021TCU BKN050 M03/M04 Q1001 R19/720060
Conditions at: BIKF (KEFLAVIK (CIV/MI, IS) observed 1200 UTC 23 January 2019
Temperature: -3.0°C (27°F)
Dewpoint: -4.0°C (25°F) [RH = 93%]
Pressure (altimeter): 29.56 inches Hg (1001.0 mb)
Winds: from the SSE (160 degrees) at 12 MPH (10 knots; 5.1 m/s)
Visibility: 6 or more miles (10+ km)
Ceiling: 5000 feet AGL
Clouds: scattered clouds at 2100 feet AGL
broken clouds at 5000 feet AGL
Weather: no significant weather observed at this time

METAR text: BIKF 231130Z 16008KT 9999 FEW018CB SCT027 BKN049 M03/M04 Q1000 R19/720060
Conditions at: BIKF (KEFLAVIK (CIV/MI, IS) observed 1130 UTC 23 January 2019
Temperature: -3.0°C (27°F)
Dewpoint: -4.0°C (25°F) [RH = 93%]
Pressure (altimeter): 29.53 inches Hg (1000.0 mb)
Winds: from the SSE (160 degrees) at 9 MPH (8 knots; 4.1 m/s)
Visibility: 6 or more miles (10+ km)
Ceiling: 4900 feet AGL
Clouds: few clouds at 1800 feet AGL
scattered clouds at 2700 feet AGL
broken clouds at 4900 feet AGL
Weather: no significant weather observed at this time

METAR text: BIKF 231100Z 16009KT 9999 VCSH SCT018CB BKN034 M03/M04 Q1000 R19/720060
Conditions at: BIKF (KEFLAVIK (CIV/MI, IS) observed 1100 UTC 23 January 2019
Temperature: -3.0°C (27°F)
Dewpoint: -4.0°C (25°F) [RH = 93%]
Pressure (altimeter): 29.53 inches Hg (1000.0 mb)
Winds: from the SSE (160 degrees) at 10 MPH (9 knots; 4.6 m/s)
Visibility: 6 or more miles (10+ km)
Ceiling: 3400 feet AGL
Clouds: scattered clouds at 1800 feet AGL
broken clouds at 3400 feet AGL
Weather: VCSH  (showers in vicinity)

METAR text: BIKF 231030Z 16011KT 9999 FEW024CB SCT044 M04/M05 Q0999 R19/720060
Conditions at: BIKF (KEFLAVIK (CIV/MI, IS) observed 1030 UTC 23 January 2019
Temperature: -4.0°C (25°F)
Dewpoint: -5.0°C (23°F) [RH = 93%]
Pressure (altimeter): 29.50 inches Hg (999.0 mb)
Winds: from the SSE (160 degrees) at 13 MPH (11 knots; 5.7 m/s)
Visibility: 6 or more miles (10+ km)
Ceiling: at least 12,000 feet AGL
Clouds: few clouds at 2400 feet AGL
scattered clouds at 4400 feet AGL
Weather: no significant weather observed at this time

METAR text: BIKF 231000Z 16009KT 9999 SCT021CB BKN090 M04/M04 Q0999 R19/720060
Conditions at: BIKF (KEFLAVIK (CIV/MI, IS) observed 1000 UTC 23 January 2019
Temperature: -4.0°C (25°F)
Dewpoint: -4.0°C (25°F) [RH = 100%]
Pressure (altimeter): 29.50 inches Hg (999.0 mb)
Winds: from the SSE (160 degrees) at 10 MPH (9 knots; 4.6 m/s)
Visibility: 6 or more miles (10+ km)
Ceiling: 9000 feet AGL
Clouds: scattered clouds at 2100 feet AGL
broken clouds at 9000 feet AGL
Weather: no significant weather observed at this time

METAR text: BIKF 230930Z 14009KT 9999 FEW014CB SCT029CB BKN043 M03/M03 Q0999 R19/720053
Conditions at: BIKF (KEFLAVIK (CIV/MI, IS) observed 0930 UTC 23 January 2019
Temperature: -3.0°C (27°F)
Dewpoint: -3.0°C (27°F) [RH = 100%]
Pressure (altimeter): 29.50 inches Hg (999.0 mb)
Winds: from the SE (140 degrees) at 10 MPH (9 knots; 4.6 m/s)
Visibility: 6 or more miles (10+ km)
Ceiling: 4300 feet AGL
Clouds: few clouds at 1400 feet AGL
scattered clouds at 2900 feet AGL
broken clouds at 4300 feet AGL
Weather: no significant weather observed at this time

METAR text: BIKF 230900Z 16011KT 9999 -SHSN SCT010CB BKN020CB BKN040 M02/M02 Q0998 R19/720053
Conditions at: BIKF (KEFLAVIK (CIV/MI, IS) observed 0900 UTC 23 January 2019
Temperature: -2.0°C (28°F)
Dewpoint: -2.0°C (28°F) [RH = 100%]
Pressure (altimeter): 29.47 inches Hg (998.0 mb)
Winds: from the SSE (160 degrees) at 13 MPH (11 knots; 5.7 m/s)
Visibility: 6 or more miles (10+ km)
Ceiling: 2000 feet AGL
Clouds: scattered clouds at 1000 feet AGL
broken clouds at 2000 feet AGL
broken clouds at 4000 feet AGL
Weather: -SHSN  (light snow showers)

METAR text: BIKF 230830Z 16012KT 9999 VCSH SCT011CB BKN026CB BKN045 M03/M03 Q0998 R19/720053
Conditions at: BIKF (KEFLAVIK (CIV/MI, IS) observed 0830 UTC 23 January 2019
Temperature: -3.0°C (27°F)
Dewpoint: -3.0°C (27°F) [RH = 100%]
Pressure (altimeter): 29.47 inches Hg (998.0 mb)
Winds: from the SSE (160 degrees) at 14 MPH (12 knots; 6.2 m/s)
Visibility: 6 or more miles (10+ km)
Ceiling: 2600 feet AGL
Clouds: scattered clouds at 1100 feet AGL
broken clouds at 2600 feet AGL
broken clouds at 4500 feet AGL
Weather: VCSH  (showers in vicinity)

METAR text: BIKF 230800Z 17010KT 9999 VCSH BKN025CB M03/M04 Q0998 R19/720053
Conditions at: BIKF (KEFLAVIK (CIV/MI, IS) observed 0800 UTC 23 January 2019
Temperature: -3.0°C (27°F)
Dewpoint: -4.0°C (25°F) [RH = 93%]
Pressure (altimeter): 29.47 inches Hg (998.0 mb)
Winds: from the S (170 degrees) at 12 MPH (10 knots; 5.1 m/s)
Visibility: 6 or more miles (10+ km)
Ceiling: 2500 feet AGL
Clouds: broken clouds at 2500 feet AGL
Weather: VCSH  (showers in vicinity)

METAR text: BIKF 230730Z 17006KT 150V220 9999 VCSH BKN025CB M04/M05 Q0997 R19/720053
Conditions at: BIKF (KEFLAVIK (CIV/MI, IS) observed 0730 UTC 23 January 2019
Temperature: -4.0°C (25°F)
Dewpoint: -5.0°C (23°F) [RH = 93%]
Pressure (altimeter): 29.44 inches Hg (997.0 mb)
Winds: from the S (170 degrees) at 7 MPH (6 knots; 3.1 m/s)
Visibility: 6 or more miles (10+ km)
Ceiling: 2500 feet AGL
Clouds: broken clouds at 2500 feet AGL
Weather: VCSH  (showers in vicinity)

METAR text: BIKF 230700Z 16010KT 9999 VCSH BKN025CB M03/M04 Q0997 R19/720065
Conditions at: BIKF (KEFLAVIK (CIV/MI, IS) observed 0700 UTC 23 January 2019
Temperature: -3.0°C (27°F)
Dewpoint: -4.0°C (25°F) [RH = 93%]
Pressure (altimeter): 29.44 inches Hg (997.0 mb)
Winds: from the SSE (160 degrees) at 12 MPH (10 knots; 5.1 m/s)
Visibility: 6 or more miles (10+ km)
Ceiling: 2500 feet AGL
Clouds: broken clouds at 2500 feet AGL
Weather: VCSH  (showers in vicinity)

METAR text: BIKF 230630Z 16006KT 9999 VCSH SCT025CB BKN038 M03/M04 Q0997 R19/720065
Conditions at: BIKF (KEFLAVIK (CIV/MI, IS) observed 0630 UTC 23 January 2019
Temperature: -3.0°C (27°F)
Dewpoint: -4.0°C (25°F) [RH = 93%]
Pressure (altimeter): 29.44 inches Hg (997.0 mb)
Winds: from the SSE (160 degrees) at 7 MPH (6 knots; 3.1 m/s)
Visibility: 6 or more miles (10+ km)
Ceiling: 3800 feet AGL
Clouds: scattered clouds at 2500 feet AGL
broken clouds at 3800 feet AGL
Weather: VCSH  (showers in vicinity)

METAR text: BIKF 230600Z 18010KT 150V210 9999 -SHSN SCT025CB BKN038 M02/M03 Q0996 R19/720065
Conditions at: BIKF (KEFLAVIK (CIV/MI, IS) observed 0600 UTC 23 January 2019
Temperature: -2.0°C (28°F)
Dewpoint: -3.0°C (27°F) [RH = 93%]
Pressure (altimeter): 29.41 inches Hg (996.0 mb)
Winds: from the S (180 degrees) at 12 MPH (10 knots; 5.1 m/s)
Visibility: 6 or more miles (10+ km)
Ceiling: 3800 feet AGL
Clouds: scattered clouds at 2500 feet AGL
broken clouds at 3800 feet AGL
Weather: -SHSN  (light snow showers)

METAR text: BIKF 230530Z 15009KT 9999 VCSH SCT025CB BKN038 M03/M04 Q0996 R28/720058
Conditions at: BIKF (KEFLAVIK (CIV/MI, IS) observed 0530 UTC 23 January 2019
Temperature: -3.0°C (27°F)
Dewpoint: -4.0°C (25°F) [RH = 93%]
Pressure (altimeter): 29.41 inches Hg (996.0 mb)
Winds: from the SSE (150 degrees) at 10 MPH (9 knots; 4.6 m/s)
Visibility: 6 or more miles (10+ km)
Ceiling: 3800 feet AGL
Clouds: scattered clouds at 2500 feet AGL
broken clouds at 3800 feet AGL
Weather: VCSH  (showers in vicinity)

METAR text: BIKF 230500Z 18007KT 9999 VCSH SCT025CB BKN044 M03/M04 Q0996 RESHSN R28/720058
Conditions at: BIKF (KEFLAVIK (CIV/MI, IS) observed 0500 UTC 23 January 2019
Temperature: -3.0°C (27°F)
Dewpoint: -4.0°C (25°F) [RH = 93%]
Pressure (altimeter): 29.41 inches Hg (996.0 mb)
Winds: from the S (180 degrees) at 8 MPH (7 knots; 3.6 m/s)
Visibility: 6 or more miles (10+ km)
Ceiling: 4400 feet AGL
Clouds: scattered clouds at 2500 feet AGL
broken clouds at 4400 feet AGL
Weather: VCSH  (showers in vicinity)

METAR text: BIKF 230430Z 28010KT 9999 VCSH SCT025CB BKN044 M02/M05 Q0996
Conditions at: BIKF (KEFLAVIK (CIV/MI, IS) observed 0430 UTC 23 January 2019
Temperature: -2.0°C (28°F)
Dewpoint: -5.0°C (23°F) [RH = 80%]
Pressure (altimeter): 29.41 inches Hg (996.0 mb)
Winds: from the W (280 degrees) at 12 MPH (10 knots; 5.1 m/s)
Visibility: 6 or more miles (10+ km)
Ceiling: 4400 feet AGL
Clouds: scattered clouds at 2500 feet AGL
broken clouds at 4400 feet AGL
Weather: VCSH  (showers in vicinity)

METAR text: BIKF 230400Z 20008KT 9999 VCSH SCT025CB BKN044 M03/M04 Q0996
Conditions at: BIKF (KEFLAVIK (CIV/MI, IS) observed 0400 UTC 23 January 2019
Temperature: -3.0°C (27°F)
Dewpoint: -4.0°C (25°F) [RH = 93%]
Pressure (altimeter): 29.41 inches Hg (996.0 mb)
Winds: from the SSW (200 degrees) at 9 MPH (8 knots; 4.1 m/s)
Visibility: 6 or more miles (10+ km)
Ceiling: 4400 feet AGL
Clouds: scattered clouds at 2500 feet AGL
broken clouds at 4400 feet AGL
Weather: VCSH  (showers in vicinity)

METAR text: BIKF 230330Z 24006KT 9999 VCSH SCT022CB BKN050 M01/M04 Q0996
Conditions at: BIKF (KEFLAVIK (CIV/MI, IS) observed 0330 UTC 23 January 2019
Temperature: -1.0°C (30°F)
Dewpoint: -4.0°C (25°F) [RH = 80%]
Pressure (altimeter): 29.41 inches Hg (996.0 mb)
Winds: from the WSW (240 degrees) at 7 MPH (6 knots; 3.1 m/s)
Visibility: 6 or more miles (10+ km)
Ceiling: 5000 feet AGL
Clouds: scattered clouds at 2200 feet AGL
broken clouds at 5000 feet AGL
Weather: VCSH  (showers in vicinity)

METAR text: BIKF 230300Z 27006KT 240V310 9999 VCSH FEW011CB SCT022CB BKN050 M01/M04 Q0995
Conditions at: BIKF (KEFLAVIK (CIV/MI, IS) observed 0300 UTC 23 January 2019
Temperature: -1.0°C (30°F)
Dewpoint: -4.0°C (25°F) [RH = 80%]
Pressure (altimeter): 29.38 inches Hg (995.0 mb)
Winds: from the W (270 degrees) at 7 MPH (6 knots; 3.1 m/s)
Visibility: 6 or more miles (10+ km)
Ceiling: 5000 feet AGL
Clouds: few clouds at 1100 feet AGL
scattered clouds at 2200 feet AGL
broken clouds at 5000 feet AGL
Weather: VCSH  (showers in vicinity)

METAR text: BIKF 230230Z 23002KT 9999 -SHSN SCT022CB BKN050 M01/M02 Q0995
Conditions at: BIKF (KEFLAVIK (CIV/MI, IS) observed 0230 UTC 23 January 2019
Temperature: -1.0°C (30°F)
Dewpoint: -2.0°C (28°F) [RH = 93%]
Pressure (altimeter): 29.38 inches Hg (995.0 mb)
Winds: from the SW (230 degrees) at 2 MPH (2 knots; 1.0 m/s)
Visibility: 6 or more miles (10+ km)
Ceiling: 5000 feet AGL
Clouds: scattered clouds at 2200 feet AGL
broken clouds at 5000 feet AGL
Weather: -SHSN  (light snow showers)

METAR text: BIKF 230200Z 28003KT 9999 VCSH SCT022CB BKN050 M02/M03 Q0996
Conditions at: BIKF (KEFLAVIK (CIV/MI, IS) observed 0200 UTC 23 January 2019
Temperature: -2.0°C (28°F)
Dewpoint: -3.0°C (27°F) [RH = 93%]
Pressure (altimeter): 29.41 inches Hg (996.0 mb)
Winds: from the W (280 degrees) at 3 MPH (3 knots; 1.5 m/s)
Visibility: 6 or more miles (10+ km)
Ceiling: 5000 feet AGL
Clouds: scattered clouds at 2200 feet AGL
broken clouds at 5000 feet AGL
Weather: VCSH  (showers in vicinity)

METAR text: BIKF 230130Z 29008KT 9999 VCSH SCT022CB BKN055 M02/M04 Q0995
Conditions at: BIKF (KEFLAVIK (CIV/MI, IS) observed 0130 UTC 23 January 2019
Temperature: -2.0°C (28°F)
Dewpoint: -4.0°C (25°F) [RH = 86%]
Pressure (altimeter): 29.38 inches Hg (995.0 mb)
Winds: from the WNW (290 degrees) at 9 MPH (8 knots; 4.1 m/s)
Visibility: 6 or more miles (10+ km)
Ceiling: 5500 feet AGL
Clouds: scattered clouds at 2200 feet AGL
broken clouds at 5500 feet AGL
Weather: VCSH  (showers in vicinity)

METAR text: BIKF 230100Z 26009KT 9999 VCSH SCT022CB BKN080 M00/M04 Q0995
Conditions at: BIKF (KEFLAVIK (CIV/MI, IS) observed 0100 UTC 23 January 2019
Temperature: 0.0°C (32°F)
Dewpoint: -4.0°C (25°F) [RH = 74%]
Pressure (altimeter): 29.38 inches Hg (995.0 mb)
Winds: from the W (260 degrees) at 10 MPH (9 knots; 4.6 m/s)
Visibility: 6 or more miles (10+ km)
Ceiling: 8000 feet AGL
Clouds: scattered clouds at 2200 feet AGL
broken clouds at 8000 feet AGL
Weather: VCSH  (showers in vicinity)

METAR text: BIKF 230030Z 30006KT 9999 VCSH SCT024CB BKN080 M01/M03 Q0995
Conditions at: BIKF (KEFLAVIK (CIV/MI, IS) observed 0030 UTC 23 January 2019
Temperature: -1.0°C (30°F)
Dewpoint: -3.0°C (27°F) [RH = 86%]
Pressure (altimeter): 29.38 inches Hg (995.0 mb)
Winds: from the WNW (300 degrees) at 7 MPH (6 knots; 3.1 m/s)
Visibility: 6 or more miles (10+ km)
Ceiling: 8000 feet AGL
Clouds: scattered clouds at 2400 feet AGL
broken clouds at 8000 feet AGL
Weather: VCSH  (showers in vicinity)

METAR text: BIKF 230000Z 24014KT 9999 VCSH SCT024CB BKN065 M00/M02 Q0995 R28/720054
Conditions at: BIKF (KEFLAVIK (CIV/MI, IS) observed 0000 UTC 23 January 2019
Temperature: 0.0°C (32°F)
Dewpoint: -2.0°C (28°F) [RH = 86%]
Pressure (altimeter): 29.38 inches Hg (995.0 mb)
Winds: from the WSW (240 degrees) at 16 MPH (14 knots; 7.2 m/s)
Visibility: 6 or more miles (10+ km)
Ceiling: 6500 feet AGL
Clouds: scattered clouds at 2400 feet AGL
broken clouds at 6500 feet AGL
Weather: VCSH  (showers in vicinity)

METAR text: BIKF 222330Z 26009KT 9999 VCSH FEW024CB SCT065 BKN270 M02/M04 Q0995 R28/720054
Conditions at: BIKF (KEFLAVIK (CIV/MI, IS) observed 2330 UTC 22 January 2019
Temperature: -2.0°C (28°F)
Dewpoint: -4.0°C (25°F) [RH = 86%]
Pressure (altimeter): 29.38 inches Hg (995.0 mb)
Winds: from the W (260 degrees) at 10 MPH (9 knots; 4.6 m/s)
Visibility: 6 or more miles (10+ km)
Ceiling: 27000 feet AGL
Clouds: few clouds at 2400 feet AGL
scattered clouds at 6500 feet AGL
broken clouds at 27000 feet AGL
Weather: VCSH  (showers in vicinity)

METAR text: BIKF 222300Z 28013KT 9999 VCSH SCT016CB BKN048 M00/M03 Q0995 R28/720054
Conditions at: BIKF (KEFLAVIK (CIV/MI, IS) observed 2300 UTC 22 January 2019
Temperature: 0.0°C (32°F)
Dewpoint: -3.0°C (27°F) [RH = 80%]
Pressure (altimeter): 29.38 inches Hg (995.0 mb)
Winds: from the W (280 degrees) at 15 MPH (13 knots; 6.7 m/s)
Visibility: 6 or more miles (10+ km)
Ceiling: 4800 feet AGL
Clouds: scattered clouds at 1600 feet AGL
broken clouds at 4800 feet AGL
Weather: VCSH  (showers in vicinity)

METAR text: BIKF 222230Z 22013KT 9999 VCSH SCT014CB BKN022 M01/M02 Q0995
Conditions at: BIKF (KEFLAVIK (CIV/MI, IS) observed 2230 UTC 22 January 2019
Temperature: -1.0°C (30°F)
Dewpoint: -2.0°C (28°F) [RH = 93%]
Pressure (altimeter): 29.38 inches Hg (995.0 mb)
Winds: from the SW (220 degrees) at 15 MPH (13 knots; 6.7 m/s)
Visibility: 6 or more miles (10+ km)
Ceiling: 2200 feet AGL
Clouds: scattered clouds at 1400 feet AGL
broken clouds at 2200 feet AGL
Weather: VCSH  (showers in vicinity)

METAR text: BIKF 222200Z 26011KT 9999 VCSH SCT018CB BKN050 00/M01 Q0994 R19/710074
Conditions at: BIKF (KEFLAVIK (CIV/MI, IS) observed 2200 UTC 22 January 2019
Temperature: 0.0°C (32°F)
Dewpoint: -1.0°C (30°F) [RH = 93%]
Pressure (altimeter): 29.35 inches Hg (994.0 mb)
Winds: from the W (260 degrees) at 13 MPH (11 knots; 5.7 m/s)
Visibility: 6 or more miles (10+ km)
Ceiling: 5000 feet AGL
Clouds: scattered clouds at 1800 feet AGL
broken clouds at 5000 feet AGL
Weather: VCSH  (showers in vicinity)

METAR text: BIKF 222130Z 24012KT 9999 VCSH FEW003 SCT020CB BKN040 M01/M02 Q0994 R19/710074
Conditions at: BIKF (KEFLAVIK (CIV/MI, IS) observed 2130 UTC 22 January 2019
Temperature: -1.0°C (30°F)
Dewpoint: -2.0°C (28°F) [RH = 93%]
Pressure (altimeter): 29.35 inches Hg (994.0 mb)
Winds: from the WSW (240 degrees) at 14 MPH (12 knots; 6.2 m/s)
Visibility: 6 or more miles (10+ km)
Ceiling: 4000 feet AGL
Clouds: few clouds at 300 feet AGL
scattered clouds at 2000 feet AGL
broken clouds at 4000 feet AGL
Weather: VCSH  (showers in vicinity)

METAR text: BIKF 222100Z 28020KT 1000 R19/P1500N SHSN SCT013CB BKN036 M01/M01 Q0994 R19/710074
Conditions at: BIKF (KEFLAVIK (CIV/MI, IS) observed 2100 UTC 22 January 2019
Temperature: -1.0°C (30°F)
Dewpoint: -1.0°C (30°F) [RH = 100%]
Pressure (altimeter): 29.35 inches Hg (994.0 mb)
Winds: from the W (280 degrees) at 23 MPH (20 knots; 10.3 m/s)
Visibility: 0.62 miles (1.00 km)
Ceiling: 3600 feet AGL
Clouds: scattered clouds at 1300 feet AGL
broken clouds at 3600 feet AGL
Weather: SHSN  (snow showers)

METAR text: BIKF 222030Z 26013KT 9999 VCSH FEW016CB BKN032 M00/M06 Q0994
Conditions at: BIKF (KEFLAVIK (CIV/MI, IS) observed 2030 UTC 22 January 2019
Temperature: 0.0°C (32°F)
Dewpoint: -6.0°C (21°F) [RH = 64%]
Pressure (altimeter): 29.35 inches Hg (994.0 mb)
Winds: from the W (260 degrees) at 15 MPH (13 knots; 6.7 m/s)
Visibility: 6 or more miles (10+ km)
Ceiling: 3200 feet AGL
Clouds: few clouds at 1600 feet AGL
broken clouds at 3200 feet AGL
Weather: VCSH  (showers in vicinity)

METAR text: BIKF 222000Z 26011KT 9999 VCSH FEW016CB SCT032 M01/M06 Q0994 RESHSN
Conditions at: BIKF (KEFLAVIK (CIV/MI, IS) observed 2000 UTC 22 January 2019
Temperature: -1.0°C (30°F)
Dewpoint: -6.0°C (21°F) [RH = 69%]
Pressure (altimeter): 29.35 inches Hg (994.0 mb)
Winds: from the W (260 degrees) at 13 MPH (11 knots; 5.7 m/s)
Visibility: 6 or more miles (10+ km)
Ceiling: at least 12,000 feet AGL
Clouds: few clouds at 1600 feet AGL
scattered clouds at 3200 feet AGL
Weather: VCSH  (showers in vicinity)

METAR text: BIKF 221930Z 16006KT 9999 VCSH FEW010CB BKN032 M01/M03 Q0994 RESHSN
Conditions at: BIKF (KEFLAVIK (CIV/MI, IS) observed 1930 UTC 22 January 2019
Temperature: -1.0°C (30°F)
Dewpoint: -3.0°C (27°F) [RH = 86%]
Pressure (altimeter): 29.35 inches Hg (994.0 mb)
Winds: from the SSE (160 degrees) at 7 MPH (6 knots; 3.1 m/s)
Visibility: 6 or more miles (10+ km)
Ceiling: 3200 feet AGL
Clouds: few clouds at 1000 feet AGL
broken clouds at 3200 feet AGL
Weather: VCSH  (showers in vicinity)

METAR text: BIKF 221900Z 15005KT 110V170 9999 VCSH FEW016CB SCT055 M04/M05 Q0994 RESHSN
Conditions at: BIKF (KEFLAVIK (CIV/MI, IS) observed 1900 UTC 22 January 2019
Temperature: -4.0°C (25°F)
Dewpoint: -5.0°C (23°F) [RH = 93%]
Pressure (altimeter): 29.35 inches Hg (994.0 mb)
Winds: from the SSE (150 degrees) at 6 MPH (5 knots; 2.6 m/s)
Visibility: 6 or more miles (10+ km)
Ceiling: at least 12,000 feet AGL
Clouds: few clouds at 1600 feet AGL
scattered clouds at 5500 feet AGL
Weather: VCSH  (showers in vicinity)

METAR text: BIKF 221830Z 08003KT 9999 VCSH FEW016CB BKN040 M02/M03 Q0994
Conditions at: BIKF (KEFLAVIK (CIV/MI, IS) observed 1830 UTC 22 January 2019
Temperature: -2.0°C (28°F)
Dewpoint: -3.0°C (27°F) [RH = 93%]
Pressure (altimeter): 29.35 inches Hg (994.0 mb)
Winds: from the E (80 degrees) at 3 MPH (3 knots; 1.5 m/s)
Visibility: 6 or more miles (10+ km)
Ceiling: 4000 feet AGL
Clouds: few clouds at 1600 feet AGL
broken clouds at 4000 feet AGL
Weather: VCSH  (showers in vicinity)

METAR text: BIKF 221800Z 03004KT 310V060 9999 -SHGS FEW016CB BKN032 M01/M03 Q0994
Conditions at: BIKF (KEFLAVIK (CIV/MI, IS) observed 1800 UTC 22 January 2019
Temperature: -1.0°C (30°F)
Dewpoint: -3.0°C (27°F) [RH = 86%]
Pressure (altimeter): 29.35 inches Hg (994.0 mb)
Winds: from the NNE (30 degrees) at 5 MPH (4 knots; 2.1 m/s)
Visibility: 6 or more miles (10+ km)
Ceiling: 3200 feet AGL
Clouds: few clouds at 1600 feet AGL
broken clouds at 3200 feet AGL
Weather: -SHGS  (unknown weather)

METAR text: BIKF 221730Z 33007KT 9999 VCSH FEW012CB BKN029 M01/M03 Q0993
Conditions at: BIKF (KEFLAVIK (CIV/MI, IS) observed 1730 UTC 22 January 2019
Temperature: -1.0°C (30°F)
Dewpoint: -3.0°C (27°F) [RH = 86%]
Pressure (altimeter): 29.32 inches Hg (993.0 mb)
Winds: from the NNW (330 degrees) at 8 MPH (7 knots; 3.6 m/s)
Visibility: 6 or more miles (10+ km)
Ceiling: 2900 feet AGL
Clouds: few clouds at 1200 feet AGL
broken clouds at 2900 feet AGL
Weather: VCSH  (showers in vicinity)

METAR text: BIKF 221700Z 26013G25KT 220V300 9999 VCSH FEW012CB BKN032 M01/M03 Q0993
Conditions at: BIKF (KEFLAVIK (CIV/MI, IS) observed 1700 UTC 22 January 2019
Temperature: -1.0°C (30°F)
Dewpoint: -3.0°C (27°F) [RH = 86%]
Pressure (altimeter): 29.32 inches Hg (993.0 mb)
Winds: from the W (260 degrees) at 15 MPH (13 knots; 6.7 m/s)
gusting to 29 MPH (25 knots; 12.9 m/s)
Visibility: 6 or more miles (10+ km)
Ceiling: 3200 feet AGL
Clouds: few clouds at 1200 feet AGL
broken clouds at 3200 feet AGL
Weather: VCSH  (showers in vicinity)

METAR text: BIKF 221630Z 27003KT 9999 4000E -SHSN FEW003 SCT014CB BKN025 M01/M04 Q0993 R28/710076
Conditions at: BIKF (KEFLAVIK (CIV/MI, IS) observed 1630 UTC 22 January 2019
Temperature: -1.0°C (30°F)
Dewpoint: -4.0°C (25°F) [RH = 80%]
Pressure (altimeter): 29.32 inches Hg (993.0 mb)
Winds: from the W (270 degrees) at 3 MPH (3 knots; 1.5 m/s)
Visibility: 6 or more miles (10+ km)
Ceiling: 2500 feet AGL
Clouds: few clouds at 300 feet AGL
scattered clouds at 1400 feet AGL
broken clouds at 2500 feet AGL
Weather: -SHSN  (light snow showers)

Forecast for: BIKF (KEFLAVIK (CIV/MI, IS)
Text: TAF BIKF 240148Z 2403/2503 12010KT 9999 FEW008 SCT018 BKN030 TX02/2415Z TNM04/2500Z
Forecast period: 0300 to 1000 UTC 24 January 2019
Forecast type: FROM: standard forecast or significant change
Winds: from the ESE (120 degrees) at 12 MPH (10 knots; 5.1 m/s)
Visibility: 6 or more miles 10+ km)
Ceiling: 3000 feet AGL
Clouds: few clouds at 800 feet AGL
scattered clouds at 1800 feet AGL
broken clouds at 3000 feet AGL
Weather: no significant weather forecast for this period
Text: TEMPO 2407/2418 2500 SN BKN008 OVC012
Forecast period: 0700 to 1800 UTC 24 January 2019
Forecast type: TEMPORARY: The following changes expected for less than half the time period
Visibility: 1.55 miles (2.49 km)
Ceiling: 800 feet AGL
Clouds: broken clouds at 800 feet AGL
overcast cloud deck at 1200 feet AGL
Weather: SN  (moderate snow)
Text: BECMG 2410/2412 12025G35KT 8000 -SN BKN010 OVC015
Forecast period: 1000 to 1400 UTC 24 January 2019
Forecast type: BECOMING: Conditions expected to become as follows by 1200 UTC 24 January 2019
Winds: from the ESE (120 degrees) at 29 MPH (25 knots; 12.9 m/s)
gusting to 40 MPH (35 knots; 18.0 m/s)
Visibility: 5 miles (8 km)
Ceiling: 1000 feet AGL
Clouds: broken clouds at 1000 feet AGL
overcast cloud deck at 1500 feet AGL
Weather: -SN  (light snow)
Text: BECMG 2414/2416 16012KT
Forecast period: 1400 to 2200 UTC 24 January 2019
Forecast type: BECOMING: Conditions expected to become as follows by 1600 UTC 24 January 2019
Winds: from the SSE (160 degrees) at 14 MPH (12 knots; 6.2 m/s)
Visibility: 5 miles (8 km)
Ceiling: 1000 feet AGL
Clouds: broken clouds at 1000 feet AGL
overcast cloud deck at 1500 feet AGL
Weather: -SN  (light snow)
Text: BECMG 2422/2500 VRB02KT
Forecast period: 2200 UTC 24 January 2019 to 0300 UTC 25 January 2019
Forecast type: BECOMING: Conditions expected to become as follows by 0000 UTC 25 January 2019
Winds: variable direction winds at 2 MPH (2 knots; 1.0 m/s)
Visibility: 5 miles (8 km)
Ceiling: 1000 feet AGL
Clouds: broken clouds at 1000 feet AGL
overcast cloud deck at 1500 feet AGL
Weather: -SN  (light snow)